createdAt,value
2018-01-16T00:01:16.376Z,2.10
2018-01-16T00:03:44.217Z,2.10
2018-01-16T00:06:12.000Z,2.30
2018-01-16T00:08:40.073Z,1.07
2018-01-16T00:11:07.840Z,1.00
2018-01-16T00:13:35.687Z,1.30
2018-01-16T00:16:03.583Z,1.43
2018-01-16T00:18:31.331Z,1.00
2018-01-16T00:20:59.697Z,0.90
2018-01-16T00:23:27.594Z,0.90
2018-01-16T00:25:55.430Z,0.90
2018-01-16T00:28:23.216Z,1.00
2018-01-16T00:30:51.106Z,0.77
2018-01-16T00:33:19.617Z,1.20
2018-01-16T00:35:48.488Z,1.10
2018-01-16T00:38:17.223Z,1.43
2018-01-16T00:40:45.613Z,2.77
2018-01-16T00:43:13.585Z,2.10
2018-01-16T00:45:41.348Z,3.50
2018-01-16T00:48:09.097Z,3.23
2018-01-16T00:50:37.084Z,3.03
2018-01-16T00:53:04.822Z,2.83
2018-01-16T00:55:32.554Z,3.77
2018-01-16T00:58:00.370Z,2.93
2018-01-16T01:00:28.321Z,3.47
2018-01-16T01:02:56.062Z,2.97
2018-01-16T01:05:23.850Z,3.10
2018-01-16T01:07:51.699Z,2.30
2018-01-16T01:10:19.482Z,2.87
2018-01-16T01:12:47.366Z,2.83
2018-01-16T01:15:15.134Z,3.27
2018-01-16T01:17:43.641Z,3.27
2018-01-16T01:20:12.284Z,3.47
2018-01-16T01:22:40.374Z,3.07
2018-01-16T01:25:09.756Z,3.73
2018-01-16T01:27:37.760Z,3.40
2018-01-16T01:30:06.304Z,3.53
2018-01-16T01:32:34.046Z,3.17
2018-01-16T01:35:01.934Z,3.50
2018-01-16T01:37:29.683Z,4.10
2018-01-16T01:39:57.479Z,3.80
2018-01-16T01:42:25.229Z,4.03
2018-01-16T01:44:53.287Z,4.30
2018-01-16T01:47:21.094Z,3.97
2018-01-16T01:49:48.837Z,4.40
2018-01-16T01:52:16.806Z,1.60
2018-01-16T01:54:44.679Z,1.27
2018-01-16T01:57:12.439Z,1.00
2018-01-16T01:59:40.220Z,0.90
2018-01-16T02:02:07.999Z,1.30
2018-01-16T02:04:36.761Z,3.43
2018-01-16T02:07:04.527Z,3.80
2018-01-16T02:09:32.389Z,4.53
2018-01-16T02:12:00.368Z,3.93
2018-01-16T02:14:28.718Z,4.17
2018-01-16T02:16:56.459Z,5.03
2018-01-16T02:19:24.298Z,4.70
2018-01-16T02:21:52.842Z,4.87
2018-01-16T02:24:20.728Z,4.67
2018-01-16T02:26:48.582Z,4.70
2018-01-16T02:29:16.334Z,3.90
2018-01-16T02:31:45.011Z,3.70
2018-01-16T02:34:13.013Z,3.10
2018-01-16T02:36:41.012Z,4.00
2018-01-16T02:39:08.813Z,4.10
2018-01-16T02:41:36.984Z,4.30
2018-01-16T02:44:05.078Z,3.27
2018-01-16T02:46:32.950Z,2.30
2018-01-16T02:49:00.803Z,4.07
2018-01-16T02:51:28.929Z,4.63
2018-01-16T02:53:56.743Z,5.60
2018-01-16T02:56:24.499Z,6.47
2018-01-16T02:58:52.328Z,6.30
2018-01-16T03:01:20.147Z,6.20
2018-01-16T03:03:48.197Z,6.10
2018-01-16T03:06:15.931Z,5.43
2018-01-16T03:08:43.675Z,6.70
2018-01-16T03:11:12.314Z,5.80
2018-01-16T03:13:40.044Z,5.00
2018-01-16T03:16:08.269Z,5.23
2018-01-16T03:18:36.085Z,2.10
2018-01-16T03:21:05.118Z,2.77
2018-01-16T03:23:32.997Z,4.30
2018-01-16T03:26:01.212Z,2.43
2018-01-16T03:28:29.737Z,1.83
2018-01-16T03:30:57.504Z,1.60
2018-01-16T03:33:25.403Z,1.20
2018-01-16T03:35:54.771Z,0.90
2018-01-16T03:38:22.518Z,1.00
2018-01-16T03:40:50.267Z,0.80
2018-01-16T03:43:18.475Z,0.87
2018-01-16T03:45:46.335Z,1.13
2018-01-16T03:48:14.113Z,0.80
2018-01-16T03:50:42.104Z,1.10
2018-01-16T03:53:10.685Z,0.93
2018-01-16T03:55:39.329Z,0.90
2018-01-16T03:58:07.292Z,1.17
2018-01-16T04:00:35.180Z,1.10
2018-01-16T04:03:03.866Z,0.97
2018-01-16T04:05:31.731Z,0.90
2018-01-16T04:07:59.583Z,1.03
2018-01-16T04:10:27.401Z,1.00
2018-01-16T04:12:56.256Z,1.20
2018-01-16T04:15:24.349Z,1.10
2018-01-16T04:17:52.383Z,0.93
2018-01-16T04:20:20.170Z,1.00
2018-01-16T04:22:48.028Z,1.10
2018-01-16T04:25:15.874Z,1.00
2018-01-16T04:27:44.473Z,0.80
2018-01-16T04:30:12.234Z,0.90
2018-01-16T04:32:40.314Z,1.17
2018-01-16T04:35:08.071Z,1.30
2018-01-16T04:37:35.941Z,0.87
2018-01-16T04:40:03.838Z,1.20
2018-01-16T04:42:32.594Z,0.90
2018-01-16T04:45:00.461Z,1.00
2018-01-16T04:47:28.413Z,1.20
2018-01-16T04:49:56.201Z,1.50
2018-01-16T04:52:24.090Z,0.90
2018-01-16T04:54:52.651Z,1.10
2018-01-16T04:57:20.514Z,1.20
2018-01-16T04:59:48.356Z,0.80
2018-01-16T05:02:16.127Z,1.37
2018-01-16T05:04:44.109Z,1.03
2018-01-16T05:07:11.894Z,1.10
2018-01-16T05:09:40.509Z,1.27
2018-01-16T05:12:08.433Z,1.20
2018-01-16T05:14:36.291Z,1.20
2018-01-16T05:17:04.467Z,1.40
2018-01-16T05:19:32.333Z,1.40
2018-01-16T05:22:00.181Z,1.07
2018-01-16T05:24:27.961Z,1.00
2018-01-16T05:26:55.829Z,1.33
2018-01-16T05:29:23.593Z,1.10
2018-01-16T05:31:51.370Z,1.10
2018-01-16T05:34:19.115Z,1.00
2018-01-16T05:36:47.071Z,1.20
2018-01-16T05:39:14.938Z,1.20
2018-01-16T05:41:43.014Z,1.00
2018-01-16T05:44:11.411Z,1.10
2018-01-16T05:46:41.956Z,1.40
2018-01-16T05:49:09.759Z,0.80
2018-01-16T05:51:37.987Z,1.00
2018-01-16T05:54:05.926Z,0.93
2018-01-16T05:56:34.534Z,0.83
2018-01-16T05:59:02.314Z,1.00
2018-01-16T06:01:30.980Z,1.17
2018-01-16T06:03:58.727Z,1.20
2018-01-16T06:06:26.451Z,1.30
2018-01-16T06:08:54.266Z,1.20
2018-01-16T06:11:22.360Z,1.10
2018-01-16T06:13:50.211Z,1.10
2018-01-16T06:16:18.182Z,1.07
2018-01-16T06:18:45.935Z,0.97
2018-01-16T06:21:13.698Z,0.80
2018-01-16T06:23:42.193Z,0.90
2018-01-16T06:26:10.134Z,1.13
2018-01-16T06:28:37.910Z,0.90
2018-01-16T06:31:05.701Z,1.00
2018-01-16T06:33:33.430Z,0.90
2018-01-16T06:36:01.212Z,1.10
2018-01-16T06:38:29.158Z,0.90
2018-01-16T06:40:56.941Z,1.10
2018-01-16T06:43:24.889Z,0.97
2018-01-16T06:45:52.769Z,1.10
2018-01-16T06:48:20.751Z,1.10
2018-01-16T06:50:48.696Z,1.17
2018-01-16T06:53:16.685Z,1.13
2018-01-16T06:55:44.441Z,0.80
2018-01-16T06:58:12.917Z,1.20
2018-01-16T07:00:40.672Z,1.00
2018-01-16T07:03:08.456Z,1.20
2018-01-16T07:05:36.892Z,0.97
2018-01-16T07:08:04.662Z,1.43
2018-01-16T07:10:32.427Z,1.30
2018-01-16T07:13:00.222Z,1.00
2018-01-16T07:15:28.177Z,1.20
2018-01-16T07:17:55.935Z,1.40
2018-01-16T07:20:23.717Z,1.00
2018-01-16T07:22:51.591Z,1.17
2018-01-16T07:25:19.405Z,0.97
2018-01-16T07:27:47.192Z,1.10
2018-01-16T07:30:15.034Z,1.10
2018-01-16T07:32:44.165Z,1.40
2018-01-16T07:35:11.956Z,0.97
2018-01-16T07:37:39.914Z,1.20
2018-01-16T07:40:07.712Z,1.00
2018-01-16T07:42:36.261Z,0.97
2018-01-16T07:45:04.125Z,2.60
2018-01-16T07:47:31.902Z,1.10
2018-01-16T07:50:00.418Z,1.10
2018-01-16T07:52:28.911Z,0.90
2018-01-16T07:54:56.735Z,1.50
2018-01-16T07:57:24.575Z,1.20
2018-01-16T07:59:52.455Z,1.10
2018-01-16T08:02:20.323Z,1.20
2018-01-16T08:04:48.867Z,1.10
2018-01-16T08:07:16.885Z,1.20
2018-01-16T08:09:44.742Z,1.30
2018-01-16T08:12:12.607Z,1.10
2018-01-16T08:14:40.374Z,1.40
2018-01-16T08:17:08.132Z,1.50
2018-01-16T08:19:35.994Z,1.27
2018-01-16T08:22:03.758Z,1.40
2018-01-16T08:24:31.713Z,0.90
2018-01-16T08:26:59.684Z,1.03
2018-01-16T08:29:27.465Z,1.20
2018-01-16T08:31:55.331Z,1.10
2018-01-16T08:34:23.179Z,1.77
2018-01-16T08:36:51.060Z,1.47
2018-01-16T08:39:19.015Z,1.50
2018-01-16T08:41:46.818Z,1.47
2018-01-16T08:44:14.744Z,1.53
2018-01-16T08:46:42.612Z,1.60
2018-01-16T08:49:10.361Z,1.90
2018-01-16T08:51:38.270Z,1.43
2018-01-16T08:54:06.042Z,1.50
2018-01-16T08:56:33.860Z,1.20
2018-01-16T08:59:01.653Z,1.37
2018-01-16T09:01:29.411Z,1.30
2018-01-16T09:03:57.284Z,1.77
2018-01-16T09:06:25.047Z,1.83
2018-01-16T09:08:53.000Z,1.47
2018-01-16T09:11:20.785Z,1.30
2018-01-16T09:13:48.647Z,1.70
2018-01-16T09:16:16.497Z,1.90
2018-01-16T09:18:45.039Z,2.00
2018-01-16T09:21:13.699Z,1.97
2018-01-16T09:23:43.080Z,1.67
2018-01-16T09:26:11.061Z,1.47
2018-01-16T09:28:38.924Z,1.90
2018-01-16T09:31:07.792Z,2.50
2018-01-16T09:33:35.761Z,1.70
2018-01-16T09:36:03.643Z,1.63
2018-01-16T09:38:31.736Z,1.80
2018-01-16T09:40:59.566Z,1.40
2018-01-16T09:43:27.534Z,1.50
2018-01-16T09:45:55.323Z,1.20
2018-01-16T09:48:23.166Z,1.23
2018-01-16T09:50:51.414Z,1.30
2018-01-16T09:53:19.222Z,1.43
2018-01-16T09:55:47.096Z,1.40
2018-01-16T09:58:14.922Z,1.20
2018-01-16T10:00:43.007Z,1.87
2018-01-16T10:03:10.759Z,1.40
2018-01-16T10:05:38.636Z,1.50
2018-01-16T10:08:06.623Z,1.50
2018-01-16T10:10:34.573Z,1.00
2018-01-16T10:13:02.455Z,1.30
2018-01-16T10:15:30.233Z,1.10
2018-01-16T10:17:58.001Z,1.20
2018-01-16T10:20:25.833Z,1.87
2018-01-16T10:22:53.624Z,3.50
2018-01-16T10:25:21.379Z,1.43
2018-01-16T10:27:49.252Z,1.00
2018-01-16T10:30:17.049Z,0.80
2018-01-16T10:32:46.002Z,0.60
2018-01-16T10:35:13.869Z,1.30
2018-01-16T10:37:41.719Z,1.37
2018-01-16T10:40:09.602Z,1.20
2018-01-16T10:42:38.066Z,1.10
2018-01-16T10:45:05.941Z,1.20
2018-01-16T10:47:33.677Z,1.40
2018-01-16T10:50:01.475Z,1.37
2018-01-16T10:52:29.259Z,1.67
2018-01-16T10:54:57.114Z,1.80
2018-01-16T10:57:25.990Z,1.77
2018-01-16T10:59:53.730Z,1.60
2018-01-16T11:02:21.468Z,1.97
2018-01-16T11:04:50.195Z,1.77
2018-01-16T11:07:18.369Z,1.90
2018-01-16T11:09:46.115Z,1.60
2018-01-16T11:12:13.863Z,1.50
2018-01-16T11:14:41.684Z,1.20
2018-01-16T11:17:10.264Z,2.23
2018-01-16T11:19:38.223Z,2.10
2018-01-16T11:22:05.974Z,1.30
2018-01-16T11:24:34.439Z,2.00
2018-01-16T11:27:02.336Z,1.10
2018-01-16T11:29:30.192Z,1.30
2018-01-16T11:31:58.077Z,1.40
2018-01-16T11:34:26.260Z,1.20
2018-01-16T11:36:54.415Z,2.00
2018-01-16T11:39:22.303Z,1.43
2018-01-16T11:41:50.161Z,2.20
2018-01-16T11:44:17.955Z,2.07
2018-01-16T11:46:46.691Z,1.73
2018-01-16T11:49:14.473Z,3.63
2018-01-16T11:51:42.253Z,5.00
2018-01-16T11:54:10.389Z,3.00
2018-01-16T11:56:38.127Z,3.57
2018-01-16T11:59:05.922Z,4.50
2018-01-16T12:01:33.858Z,4.57
2018-01-16T12:04:01.855Z,4.50
2018-01-16T12:06:29.720Z,2.23
2018-01-16T12:08:57.706Z,2.50
2018-01-16T12:11:25.448Z,2.83
2018-01-16T12:13:53.231Z,2.40
2018-01-16T12:16:21.095Z,1.57
2018-01-16T12:18:48.966Z,1.40
2018-01-16T12:21:16.856Z,1.80
2018-01-16T12:23:44.679Z,1.53
2018-01-16T12:26:12.592Z,1.77
2018-01-16T12:28:41.166Z,1.67
2018-01-16T12:31:09.057Z,1.50
2018-01-16T12:33:37.611Z,5.00
2018-01-16T12:36:05.350Z,4.93
2018-01-16T12:38:33.100Z,12.53
2018-01-16T12:41:00.858Z,2.40
2018-01-16T12:43:28.666Z,7.00
2018-01-16T12:45:56.670Z,3.23
2018-01-16T12:48:25.160Z,3.43
2018-01-16T12:50:52.952Z,2.97
2018-01-16T12:53:20.733Z,1.57
2018-01-16T12:55:48.688Z,1.40
2018-01-16T12:58:16.550Z,1.40
2018-01-16T13:00:44.445Z,1.43
2018-01-16T13:03:12.301Z,1.70
2018-01-16T13:05:40.362Z,1.37
2018-01-16T13:08:08.278Z,1.50
2018-01-16T13:10:36.800Z,1.40
2018-01-16T13:13:04.874Z,1.23
2018-01-16T13:15:32.761Z,1.40
2018-01-16T13:18:00.628Z,1.40
2018-01-16T13:20:28.492Z,1.27
2018-01-16T13:22:56.256Z,1.30
2018-01-16T13:25:24.087Z,1.77
2018-01-16T13:27:52.095Z,1.33
2018-01-16T13:30:19.959Z,1.90
2018-01-16T13:32:47.909Z,1.10
2018-01-16T13:35:15.678Z,1.50
2018-01-16T13:37:43.613Z,1.17
2018-01-16T13:40:11.470Z,1.30
2018-01-16T13:42:40.391Z,1.20
2018-01-16T13:45:08.266Z,1.50
2018-01-16T13:47:36.153Z,1.37
2018-01-16T13:50:04.117Z,3.10
2018-01-16T13:52:32.174Z,1.03
2018-01-16T13:54:59.913Z,1.10
2018-01-16T13:57:27.803Z,0.97
2018-01-16T13:59:55.677Z,1.00
2018-01-16T14:02:23.555Z,0.80
2018-01-16T14:04:51.403Z,0.70
2018-01-16T14:07:19.293Z,0.70
2018-01-16T14:09:47.083Z,0.80
2018-01-16T14:12:15.845Z,0.87
2018-01-16T14:14:43.637Z,0.60
2018-01-16T14:17:12.270Z,0.60
2018-01-16T14:19:40.158Z,0.80
2018-01-16T14:22:08.019Z,0.60
2018-01-16T14:24:35.873Z,1.67
2018-01-16T14:27:03.641Z,0.90
2018-01-16T14:29:32.233Z,1.00
2018-01-16T14:32:00.092Z,0.60
2018-01-16T14:34:27.969Z,0.73
2018-01-16T14:36:55.838Z,0.80
2018-01-16T14:39:23.621Z,0.50
2018-01-16T14:41:51.466Z,1.00
2018-01-16T14:44:19.416Z,0.67
2018-01-16T14:46:47.285Z,0.60
2018-01-16T14:49:15.149Z,0.67
2018-01-16T14:51:43.867Z,0.67
2018-01-16T14:54:11.721Z,0.70
2018-01-16T14:56:39.582Z,0.70
2018-01-16T14:59:07.452Z,0.90
2018-01-16T15:01:35.327Z,1.00
2018-01-16T15:04:03.079Z,0.70
2018-01-16T15:06:30.879Z,1.80
2018-01-16T15:08:59.414Z,0.97
2018-01-16T15:11:27.294Z,0.87
2018-01-16T15:13:55.170Z,1.03
2018-01-16T15:16:23.013Z,0.80
2018-01-16T15:18:50.877Z,0.70
2018-01-16T15:21:18.770Z,0.60
2018-01-16T15:23:46.715Z,0.60
2018-01-16T15:26:14.692Z,0.60
2018-01-16T15:28:42.458Z,0.70
2018-01-16T15:31:10.417Z,0.97
2018-01-16T15:33:38.284Z,3.03
2018-01-16T15:36:06.082Z,1.00
2018-01-16T15:38:33.911Z,0.80
2018-01-16T15:41:02.439Z,1.03
2018-01-16T15:43:31.174Z,1.20
2018-01-16T15:45:59.069Z,0.87
2018-01-16T15:48:27.031Z,1.27
2018-01-16T15:50:54.952Z,0.90
2018-01-16T15:53:22.743Z,1.20
2018-01-16T15:55:50.632Z,0.87
2018-01-16T15:58:18.499Z,0.90
2018-01-16T16:00:46.568Z,0.90
2018-01-16T16:03:14.652Z,0.90
2018-01-16T16:05:42.608Z,1.63
2018-01-16T16:08:10.476Z,0.80
2018-01-16T16:10:38.444Z,0.70
2018-01-16T16:13:06.266Z,0.60
2018-01-16T16:15:34.576Z,1.00
2018-01-16T16:18:02.500Z,0.97
2018-01-16T16:20:31.053Z,0.80
2018-01-16T16:22:58.874Z,1.37
2018-01-16T16:25:26.656Z,1.17
2018-01-16T16:27:54.528Z,1.00
2018-01-16T16:30:22.708Z,1.10
2018-01-16T16:32:50.556Z,0.90
2018-01-16T16:35:18.455Z,2.23
2018-01-16T16:37:46.801Z,1.33
2018-01-16T16:40:14.683Z,1.00
2018-01-16T16:42:42.574Z,0.90
2018-01-16T16:45:10.605Z,3.53
2018-01-16T16:47:38.570Z,7.20
2018-01-16T16:50:06.407Z,6.40
2018-01-16T16:52:34.431Z,2.80
2018-01-16T16:55:02.582Z,1.77
2018-01-16T16:57:31.061Z,2.27
2018-01-16T16:59:58.956Z,2.10
2018-01-16T17:02:26.796Z,1.00
2018-01-16T17:04:54.680Z,1.23
2018-01-16T17:07:22.661Z,1.00
2018-01-16T17:09:50.547Z,0.70
2018-01-16T17:12:19.290Z,0.90
2018-01-16T17:14:47.254Z,1.13
2018-01-16T17:17:15.122Z,1.80
2018-01-16T17:19:43.190Z,0.93
2018-01-16T17:22:11.058Z,1.00
2018-01-16T17:24:38.924Z,1.10
2018-01-16T17:27:06.927Z,1.27
2018-01-16T17:29:34.776Z,1.13
2018-01-16T17:32:02.660Z,1.20
2018-01-16T17:34:30.516Z,1.20
2018-01-16T17:36:58.916Z,1.27
2018-01-16T17:39:27.582Z,2.07
2018-01-16T17:41:55.531Z,7.60
2018-01-16T17:44:23.428Z,2.67
2018-01-16T17:46:52.003Z,4.20
2018-01-16T17:49:20.687Z,3.93
2018-01-16T17:51:48.545Z,3.27
2018-01-16T17:54:16.529Z,2.10
2018-01-16T17:56:44.340Z,1.77
2018-01-16T17:59:12.218Z,1.03
2018-01-16T18:01:40.251Z,1.33
2018-01-16T18:04:09.004Z,1.33
2018-01-16T18:06:37.602Z,1.10
2018-01-16T18:09:05.489Z,1.30
2018-01-16T18:11:34.528Z,1.67
2018-01-16T18:14:02.607Z,1.50
2018-01-16T18:16:30.725Z,1.17
2018-01-16T18:18:59.569Z,1.40
2018-01-16T18:21:27.537Z,1.57
2018-01-16T18:23:55.526Z,1.30
2018-01-16T18:26:23.570Z,0.87
2018-01-16T18:28:51.540Z,0.80
2018-01-16T18:31:19.459Z,0.90
2018-01-16T18:33:48.143Z,1.20
2018-01-16T18:36:16.884Z,1.10
2018-01-16T18:38:44.744Z,1.00
2018-01-16T18:41:12.596Z,1.40
2018-01-16T18:43:40.490Z,1.23
2018-01-16T18:46:08.367Z,1.10
2018-01-16T18:48:36.373Z,1.73
2018-01-16T18:51:05.041Z,1.63
2018-01-16T18:53:34.811Z,1.50
2018-01-16T18:56:02.988Z,3.70
2018-01-16T18:58:30.976Z,3.17
2018-01-16T19:00:58.824Z,1.90
2018-01-16T19:03:26.610Z,1.93
2018-01-16T19:05:54.431Z,1.73
2018-01-16T19:08:22.198Z,2.50
2018-01-16T19:10:49.998Z,1.97
2018-01-16T19:13:18.482Z,2.47
2018-01-16T19:15:46.336Z,2.00
2018-01-16T19:18:14.241Z,1.60
2018-01-16T19:20:42.809Z,1.50
2018-01-16T19:23:10.666Z,2.47
2018-01-16T19:25:38.610Z,2.30
2018-01-16T19:28:06.427Z,2.80
2018-01-16T19:30:36.085Z,1.70
2018-01-16T19:33:03.946Z,2.97
2018-01-16T19:35:31.921Z,3.40
2018-01-16T19:37:59.887Z,1.63
2018-01-16T19:40:27.964Z,1.30
2018-01-16T19:42:55.754Z,1.10
2018-01-16T19:45:24.844Z,1.20
2018-01-16T19:47:53.200Z,1.37
2018-01-16T19:50:22.143Z,1.53
2018-01-16T19:52:51.438Z,3.80
2018-01-16T19:55:20.480Z,1.80
2018-01-16T19:57:48.452Z,3.23
2018-01-16T20:00:17.475Z,1.50
2018-01-16T20:02:46.450Z,1.77
2018-01-16T20:05:14.505Z,1.73
2018-01-16T20:07:43.526Z,1.20
2018-01-16T20:10:11.392Z,1.87
2018-01-16T20:12:39.643Z,1.50
2018-01-16T20:15:07.609Z,1.63
2018-01-16T20:17:35.679Z,1.33
2018-01-16T20:20:03.595Z,1.90
2018-01-16T20:22:32.371Z,1.50
2018-01-16T20:25:01.330Z,1.00
2018-01-16T20:27:29.121Z,1.03
2018-01-16T20:29:57.284Z,0.77
2018-01-16T20:32:25.797Z,1.13
2018-01-16T20:34:54.560Z,0.73
2018-01-16T20:37:22.505Z,0.80
2018-01-16T20:39:50.395Z,0.80
2018-01-16T20:42:18.549Z,0.70
2018-01-16T20:44:46.419Z,1.00
2018-01-16T20:47:14.316Z,1.20
2018-01-16T20:49:42.552Z,1.13
2018-01-16T20:52:10.521Z,1.37
2018-01-16T20:54:38.443Z,1.23
2018-01-16T20:57:07.180Z,0.97
2018-01-16T20:59:35.259Z,1.20
2018-01-16T21:02:03.428Z,1.53
2018-01-16T21:04:31.870Z,1.20
2018-01-16T21:07:00.098Z,1.50
2018-01-16T21:09:28.349Z,1.47
2018-01-16T21:11:57.294Z,1.37
2018-01-16T21:14:25.616Z,1.70
2018-01-16T21:16:53.828Z,1.50
2018-01-16T21:19:21.864Z,1.53
2018-01-16T21:21:50.655Z,1.60
2018-01-16T21:24:18.723Z,1.60
2018-01-16T21:26:46.829Z,1.10
2018-01-16T21:29:14.731Z,1.07
2018-01-16T21:31:42.835Z,1.30
2018-01-16T21:34:11.147Z,1.30
2018-01-16T21:36:39.726Z,1.10
2018-01-16T21:39:08.794Z,1.10
2018-01-16T21:41:36.659Z,1.20
2018-01-16T21:44:04.523Z,1.57
2018-01-16T21:46:32.488Z,1.87
2018-01-16T21:49:00.971Z,1.10
2018-01-16T21:51:28.835Z,1.40
2018-01-16T21:53:56.732Z,1.50
2018-01-16T21:56:24.578Z,1.40
2018-01-16T21:58:52.672Z,1.03
2018-01-16T22:01:20.609Z,1.10
2018-01-16T22:03:48.693Z,1.00
2018-01-16T22:06:16.566Z,1.00
2018-01-16T22:08:44.437Z,0.90
2018-01-16T22:11:12.298Z,1.07
2018-01-16T22:13:40.313Z,1.40
2018-01-16T22:16:08.114Z,1.47
2018-01-16T22:18:36.080Z,1.10
2018-01-16T22:21:03.952Z,0.93
2018-01-16T22:23:31.925Z,1.13
2018-01-16T22:25:59.694Z,1.30
2018-01-16T22:28:27.573Z,0.90
2018-01-16T22:30:55.471Z,1.77
2018-01-16T22:33:23.981Z,0.93
2018-01-16T22:35:51.750Z,1.27
2018-01-16T22:38:19.990Z,0.70
2018-01-16T22:40:48.725Z,0.70
2018-01-16T22:43:16.471Z,0.90
2018-01-16T22:45:44.366Z,0.60
2018-01-16T22:48:12.160Z,0.70
2018-01-16T22:50:40.829Z,0.60
2018-01-16T22:53:08.776Z,0.70
2018-01-16T22:55:37.065Z,0.60
2018-01-16T22:58:04.832Z,0.80
2018-01-16T23:00:32.693Z,0.60
2018-01-16T23:03:00.457Z,0.87
2018-01-16T23:05:29.762Z,0.90
2018-01-16T23:07:57.819Z,0.80
2018-01-16T23:10:25.595Z,0.70
2018-01-16T23:12:53.468Z,0.60
2018-01-16T23:15:21.227Z,0.70
2018-01-16T23:17:49.096Z,0.80
2018-01-16T23:20:16.951Z,0.70
2018-01-16T23:25:39.172Z,0.90
2018-01-16T23:28:07.543Z,0.80
2018-01-16T23:30:35.358Z,0.50
2018-01-16T23:33:03.117Z,0.70
2018-01-16T23:35:33.630Z,0.80
2018-01-16T23:38:01.513Z,0.60
2018-01-16T23:40:29.258Z,0.50
2018-01-16T23:42:57.128Z,0.60
2018-01-16T23:45:24.934Z,0.60
2018-01-16T23:47:53.488Z,0.50
2018-01-16T23:50:21.353Z,0.60
2018-01-16T23:52:49.340Z,0.70
2018-01-16T23:55:17.143Z,0.70
2018-01-16T23:57:44.963Z,0.60
